sensor_id;sensor_type;location;lat;lon;timestamp;pressure;altitude;pressure_sealevel;temperature;humidity
71195;BME280;58908;51.426;7.714;2022-08-19T00:01:51;99546.09;;;15.70;100.00
71195;BME280;58908;51.426;7.714;2022-08-19T00:04:17;99541.75;;;15.69;99.86
71195;BME280;58908;51.426;7.714;2022-08-19T00:06:43;99555.66;;;15.62;99.80
71195;BME280;58908;51.426;7.714;2022-08-19T00:09:09;99556.63;;;15.61;99.50
71195;BME280;58908;51.426;7.714;2022-08-19T00:11:35;99552.53;;;15.57;99.34
71195;BME280;58908;51.426;7.714;2022-08-19T00:14:02;99554.59;;;15.53;100.00
71195;BME280;58908;51.426;7.714;2022-08-19T00:16:28;99552.75;;;15.54;100.00
71195;BME280;58908;51.426;7.714;2022-08-19T00:18:54;99557.09;;;15.55;100.00
71195;BME280;58908;51.426;7.714;2022-08-19T00:21:20;99557.25;;;15.53;100.00
71195;BME280;58908;51.426;7.714;2022-08-19T00:23:45;99551.34;;;15.50;100.00
71195;BME280;58908;51.426;7.714;2022-08-19T00:26:10;99559.66;;;15.45;100.00
71195;BME280;58908;51.426;7.714;2022-08-19T00:28:36;99552.06;;;15.41;100.00
71195;BME280;58908;51.426;7.714;2022-08-19T00:31:02;99553.53;;;15.34;100.00
71195;BME280;58908;51.426;7.714;2022-08-19T00:33:27;99558.25;;;15.30;100.00
71195;BME280;58908;51.426;7.714;2022-08-19T00:35:54;99548.56;;;15.29;100.00
71195;BME280;58908;51.426;7.714;2022-08-19T00:38:19;99547.69;;;15.29;100.00
71195;BME280;58908;51.426;7.714;2022-08-19T00:40:47;99540.69;;;15.28;100.00
71195;BME280;58908;51.426;7.714;2022-08-19T00:43:13;99552.19;;;15.17;100.00
71195;BME280;58908;51.426;7.714;2022-08-19T00:45:38;99544.06;;;15.08;100.00
71195;BME280;58908;51.426;7.714;2022-08-19T00:48:06;99547.69;;;15.07;100.00
71195;BME280;58908;51.426;7.714;2022-08-19T00:50:32;99546.63;;;15.09;100.00
71195;BME280;58908;51.426;7.714;2022-08-19T00:52:58;99544.69;;;15.11;100.00
71195;BME280;58908;51.426;7.714;2022-08-19T00:55:25;99545.53;;;15.12;100.00
71195;BME280;58908;51.426;7.714;2022-08-19T00:58:01;99543.97;;;15.09;100.00
71195;BME280;58908;51.426;7.714;2022-08-19T01:00:28;99543.59;;;15.14;100.00
71195;BME280;58908;51.426;7.714;2022-08-19T01:02:53;99539.47;;;15.21;100.00
71195;BME280;58908;51.426;7.714;2022-08-19T01:05:20;99546.00;;;15.17;100.00
71195;BME280;58908;51.426;7.714;2022-08-19T01:07:46;99550.59;;;15.15;100.00
71195;BME280;58908;51.426;7.714;2022-08-19T01:10:14;99557.59;;;15.16;100.00
71195;BME280;58908;51.426;7.714;2022-08-19T01:12:40;99553.25;;;15.15;100.00
71195;BME280;58908;51.426;7.714;2022-08-19T01:15:07;99555.81;;;15.16;100.00
71195;BME280;58908;51.426;7.714;2022-08-19T01:17:33;99550.09;;;15.10;100.00
71195;BME280;58908;51.426;7.714;2022-08-19T01:19:58;99547.69;;;15.07;100.00
71195;BME280;58908;51.426;7.714;2022-08-19T01:24:49;99547.59;;;14.97;100.00
71195;BME280;58908;51.426;7.714;2022-08-19T01:27:14;99546.09;;;14.93;100.00
71195;BME280;58908;51.426;7.714;2022-08-19T01:29:40;99545.19;;;14.94;100.00
71195;BME280;58908;51.426;7.714;2022-08-19T01:32:07;99541.66;;;14.94;100.00
71195;BME280;58908;51.426;7.714;2022-08-19T01:34:32;99532.63;;;14.96;100.00
71195;BME280;58908;51.426;7.714;2022-08-19T01:36:58;99530.06;;;14.95;100.00
71195;BME280;58908;51.426;7.714;2022-08-19T01:39:24;99524.50;;;14.98;100.00
71195;BME280;58908;51.426;7.714;2022-08-19T01:41:49;99521.84;;;14.98;100.00
71195;BME280;58908;51.426;7.714;2022-08-19T01:44:15;99527.53;;;14.93;100.00
71195;BME280;58908;51.426;7.714;2022-08-19T01:46:41;99525.09;;;14.90;100.00
71195;BME280;58908;51.426;7.714;2022-08-19T01:49:06;99524.50;;;14.87;100.00
71195;BME280;58908;51.426;7.714;2022-08-19T01:51:32;99522.09;;;14.84;100.00
71195;BME280;58908;51.426;7.714;2022-08-19T01:53:57;99523.91;;;14.83;100.00
71195;BME280;58908;51.426;7.714;2022-08-19T01:56:23;99524.50;;;14.87;100.00
71195;BME280;58908;51.426;7.714;2022-08-19T01:58:51;99522.59;;;14.89;100.00
71195;BME280;58908;51.426;7.714;2022-08-19T02:01:17;99514.63;;;14.89;100.00
71195;BME280;58908;51.426;7.714;2022-08-19T02:03:42;99515.69;;;14.86;100.00
71195;BME280;58908;51.426;7.714;2022-08-19T02:06:08;99512.91;;;14.77;100.00
71195;BME280;58908;51.426;7.714;2022-08-19T02:08:34;99513.88;;;14.76;100.00
71195;BME280;58908;51.426;7.714;2022-08-19T02:11:00;99511.72;;;14.70;100.00
71195;BME280;58908;51.426;7.714;2022-08-19T02:13:26;99519.53;;;14.71;100.00
71195;BME280;58908;51.426;7.714;2022-08-19T02:15:51;99515.09;;;14.72;100.00
71195;BME280;58908;51.426;7.714;2022-08-19T02:18:16;99509.53;;;14.75;100.00
71195;BME280;58908;51.426;7.714;2022-08-19T02:20:41;99519.53;;;14.71;100.00
71195;BME280;58908;51.426;7.714;2022-08-19T02:23:08;99524.63;;;14.74;100.00
71195;BME280;58908;51.426;7.714;2022-08-19T02:25:33;99536.78;;;14.77;100.00
71195;BME280;58908;51.426;7.714;2022-08-19T02:27:58;99531.03;;;14.94;100.00
71195;BME280;58908;51.426;7.714;2022-08-19T02:30:24;99529.34;;;15.04;100.00
71195;BME280;58908;51.426;7.714;2022-08-19T02:32:50;99525.38;;;14.98;100.00
71195;BME280;58908;51.426;7.714;2022-08-19T02:35:15;99524.66;;;14.96;100.00
71195;BME280;58908;51.426;7.714;2022-08-19T02:37:41;99523.19;;;14.92;100.00
71195;BME280;58908;51.426;7.714;2022-08-19T02:40:25;99519.94;;;14.89;100.00
71195;BME280;58908;51.426;7.714;2022-08-19T02:42:51;99525.25;;;14.89;100.00
71195;BME280;58908;51.426;7.714;2022-08-19T02:45:16;99531.63;;;14.86;100.00
71195;BME280;58908;51.426;7.714;2022-08-19T02:47:41;99522.59;;;14.78;100.00
71195;BME280;58908;51.426;7.714;2022-08-19T02:50:06;99517.84;;;14.70;100.00
71195;BME280;58908;51.426;7.714;2022-08-19T02:52:32;99525.22;;;14.67;100.00
71195;BME280;58908;51.426;7.714;2022-08-19T02:54:58;99516.16;;;14.69;100.00
71195;BME280;58908;51.426;7.714;2022-08-19T02:57:25;99520.41;;;14.72;100.00
71195;BME280;58908;51.426;7.714;2022-08-19T02:59:50;99512.44;;;14.72;100.00
71195;BME280;58908;51.426;7.714;2022-08-19T03:02:15;99515.81;;;14.74;100.00
71195;BME280;58908;51.426;7.714;2022-08-19T03:04:41;99506.25;;;14.71;100.00
71195;BME280;58908;51.426;7.714;2022-08-19T03:07:07;99502.88;;;14.69;100.00
71195;BME280;58908;51.426;7.714;2022-08-19T03:09:32;99501.91;;;14.70;100.00
71195;BME280;58908;51.426;7.714;2022-08-19T03:11:57;99508.34;;;14.68;100.00
71195;BME280;58908;51.426;7.714;2022-08-19T03:14:23;99500.94;;;14.60;100.00
71195;BME280;58908;51.426;7.714;2022-08-19T03:16:49;99509.16;;;14.57;100.00
71195;BME280;58908;51.426;7.714;2022-08-19T03:19:16;99508.19;;;14.58;100.00
71195;BME280;58908;51.426;7.714;2022-08-19T03:21:41;99511.06;;;14.55;100.00
71195;BME280;58908;51.426;7.714;2022-08-19T03:24:08;99512.28;;;14.51;100.00
71195;BME280;58908;51.426;7.714;2022-08-19T03:26:33;99525.78;;;14.48;100.00
71195;BME280;58908;51.426;7.714;2022-08-19T03:29:02;99522.16;;;14.49;100.00
71195;BME280;58908;51.426;7.714;2022-08-19T03:31:27;99521.31;;;14.49;100.00
71195;BME280;58908;51.426;7.714;2022-08-19T03:33:52;99516.25;;;14.46;100.00
71195;BME280;58908;51.426;7.714;2022-08-19T03:36:19;99523.13;;;14.48;100.00
71195;BME280;58908;51.426;7.714;2022-08-19T03:38:49;99524.81;;;14.49;100.00
71195;BME280;58908;51.426;7.714;2022-08-19T03:41:20;99528.06;;;14.53;100.00
71195;BME280;58908;51.426;7.714;2022-08-19T03:43:45;99522.78;;;14.64;100.00
71195;BME280;58908;51.426;7.714;2022-08-19T03:46:20;99528.44;;;14.59;100.00
71195;BME280;58908;51.426;7.714;2022-08-19T03:48:46;99538.88;;;14.73;100.00
71195;BME280;58908;51.426;7.714;2022-08-19T03:51:19;99534.66;;;14.82;100.00
71195;BME280;58908;51.426;7.714;2022-08-19T03:53:44;99540.69;;;14.95;100.00
71195;BME280;58908;51.426;7.714;2022-08-19T03:56:10;99546.88;;;14.95;100.00
71195;BME280;58908;51.426;7.714;2022-08-19T03:58:35;99541.31;;;14.98;100.00
71195;BME280;58908;51.426;7.714;2022-08-19T04:01:02;99543.09;;;14.98;100.00
71195;BME280;58908;51.426;7.714;2022-08-19T04:03:27;99547.06;;;14.81;100.00
71195;BME280;58908;51.426;7.714;2022-08-19T04:05:52;99547.91;;;14.71;100.00
71195;BME280;58908;51.426;7.714;2022-08-19T04:08:18;99551.41;;;14.71;100.00
71195;BME280;58908;51.426;7.714;2022-08-19T04:10:45;99548.38;;;14.76;100.00
71195;BME280;58908;51.426;7.714;2022-08-19T04:13:10;99551.03;;;14.65;100.00
71195;BME280;58908;51.426;7.714;2022-08-19T04:15:39;99546.81;;;14.62;100.00
71195;BME280;58908;51.426;7.714;2022-08-19T04:18:06;99547.50;;;14.53;100.00
71195;BME280;58908;51.426;7.714;2022-08-19T04:20:32;99545.09;;;14.50;100.00
71195;BME280;58908;51.426;7.714;2022-08-19T04:22:57;99542.44;;;14.50;100.00
71195;BME280;58908;51.426;7.714;2022-08-19T04:25:23;99549.41;;;14.41;100.00
71195;BME280;58908;51.426;7.714;2022-08-19T04:27:48;99551.69;;;14.34;100.00
71195;BME280;58908;51.426;7.714;2022-08-19T04:30:13;99547.69;;;14.29;100.00
71195;BME280;58908;51.426;7.714;2022-08-19T04:32:38;99559.13;;;14.29;100.00
71195;BME280;58908;51.426;7.714;2022-08-19T04:35:04;99561.56;;;14.32;100.00
71195;BME280;58908;51.426;7.714;2022-08-19T04:37:29;99558.66;;;14.24;100.00
71195;BME280;58908;51.426;7.714;2022-08-19T04:39:57;99565.03;;;14.09;100.00
71195;BME280;58908;51.426;7.714;2022-08-19T04:42:41;99555.53;;;14.07;100.00
71195;BME280;58908;51.426;7.714;2022-08-19T04:45:07;99553.72;;;14.07;100.00
71195;BME280;58908;51.426;7.714;2022-08-19T04:47:34;99546.03;;;14.15;100.00
71195;BME280;58908;51.426;7.714;2022-08-19T04:50:00;99558.25;;;14.18;100.00
71195;BME280;58908;51.426;7.714;2022-08-19T04:52:25;99556.56;;;14.17;100.00
71195;BME280;58908;51.426;7.714;2022-08-19T04:54:50;99558.84;;;14.21;100.00
71195;BME280;58908;51.426;7.714;2022-08-19T04:57:15;99555.38;;;14.21;100.00
71195;BME280;58908;51.426;7.714;2022-08-19T04:59:40;99548.03;;;14.24;100.00
71195;BME280;58908;51.426;7.714;2022-08-19T05:02:06;99555.66;;;14.29;100.00
71195;BME280;58908;51.426;7.714;2022-08-19T05:04:32;99555.75;;;14.27;100.00
71195;BME280;58908;51.426;7.714;2022-08-19T05:06:58;99567.34;;;14.26;100.00
71195;BME280;58908;51.426;7.714;2022-08-19T05:09:24;99566.38;;;14.27;100.00
71195;BME280;58908;51.426;7.714;2022-08-19T05:11:51;99571.78;;;14.26;100.00
71195;BME280;58908;51.426;7.714;2022-08-19T05:14:17;99569.50;;;14.32;100.00
71195;BME280;58908;51.426;7.714;2022-08-19T05:16:44;99572.91;;;14.34;100.00
71195;BME280;58908;51.426;7.714;2022-08-19T05:19:09;99577.75;;;14.40;100.00
71195;BME280;58908;51.426;7.714;2022-08-19T05:21:53;99581.66;;;14.47;100.00
71195;BME280;58908;51.426;7.714;2022-08-19T05:24:37;99581.31;;;14.51;100.00
71195;BME280;58908;51.426;7.714;2022-08-19T05:27:02;99585.88;;;14.60;100.00
71195;BME280;58908;51.426;7.714;2022-08-19T05:29:30;99588.19;;;14.65;100.00
71195;BME280;58908;51.426;7.714;2022-08-19T05:31:59;99588.56;;;14.71;100.00
71195;BME280;58908;51.426;7.714;2022-08-19T05:34:25;99584.50;;;14.78;100.00
71195;BME280;58908;51.426;7.714;2022-08-19T05:36:55;99578.59;;;14.86;100.00
71195;BME280;58908;51.426;7.714;2022-08-19T05:39:22;99573.53;;;14.94;100.00
71195;BME280;58908;51.426;7.714;2022-08-19T05:41:48;99572.66;;;14.93;100.00
71195;BME280;58908;51.426;7.714;2022-08-19T05:44:14;99572.81;;;15.03;100.00
71195;BME280;58908;51.426;7.714;2022-08-19T05:46:40;99573.19;;;15.09;100.00
71195;BME280;58908;51.426;7.714;2022-08-19T05:49:07;99581.41;;;15.17;100.00
71195;BME280;58908;51.426;7.714;2022-08-19T05:51:33;99574.28;;;15.29;100.00
71195;BME280;58908;51.426;7.714;2022-08-19T05:53:59;99577.44;;;15.45;100.00
71195;BME280;58908;51.426;7.714;2022-08-19T05:56:24;99583.59;;;15.56;100.00
71195;BME280;58908;51.426;7.714;2022-08-19T05:58:50;99579.50;;;15.52;100.00
71195;BME280;58908;51.426;7.714;2022-08-19T06:01:16;99579.38;;;15.32;100.00
71195;BME280;58908;51.426;7.714;2022-08-19T06:03:42;99578.91;;;15.38;100.00
71195;BME280;58908;51.426;7.714;2022-08-19T06:06:08;99584.19;;;15.49;100.00
71195;BME280;58908;51.426;7.714;2022-08-19T06:08:34;99578.88;;;15.60;100.00
71195;BME280;58908;51.426;7.714;2022-08-19T06:13:38;99573.97;;;15.87;100.00
71195;BME280;58908;51.426;7.714;2022-08-19T06:16:03;99574.91;;;15.97;99.11
71195;BME280;58908;51.426;7.714;2022-08-19T06:18:29;99585.75;;;16.16;99.29
71195;BME280;58908;51.426;7.714;2022-08-19T06:20:54;99573.00;;;16.30;99.83
71195;BME280;58908;51.426;7.714;2022-08-19T06:23:19;99577.59;;;16.60;98.55
71195;BME280;58908;51.426;7.714;2022-08-19T06:25:45;99579.13;;;17.03;94.99
71195;BME280;58908;51.426;7.714;2022-08-19T06:28:10;99580.63;;;17.95;90.28
71195;BME280;58908;51.426;7.714;2022-08-19T06:30:36;99572.81;;;18.41;88.06
71195;BME280;58908;51.426;7.714;2022-08-19T06:33:01;99570.91;;;18.99;86.22
71195;BME280;58908;51.426;7.714;2022-08-19T06:35:27;99560.16;;;19.54;82.23
71195;BME280;58908;51.426;7.714;2022-08-19T06:37:54;99553.03;;;20.69;77.75
71195;BME280;58908;51.426;7.714;2022-08-19T06:40:20;99557.38;;;20.87;76.60
71195;BME280;58908;51.426;7.714;2022-08-19T06:42:45;99562.72;;;21.38;74.46
71195;BME280;58908;51.426;7.714;2022-08-19T06:45:10;99567.72;;;21.33;74.04
71195;BME280;58908;51.426;7.714;2022-08-19T06:47:35;99564.78;;;21.44;73.86
71195;BME280;58908;51.426;7.714;2022-08-19T06:50:01;99563.53;;;22.13;71.72
71195;BME280;58908;51.426;7.714;2022-08-19T06:52:30;99562.72;;;22.21;72.10
71195;BME280;58908;51.426;7.714;2022-08-19T06:54:55;99571.84;;;23.00;68.35
71195;BME280;58908;51.426;7.714;2022-08-19T06:57:21;99571.19;;;22.90;68.99
71195;BME280;58908;51.426;7.714;2022-08-19T06:59:46;99566.50;;;22.84;70.49
71195;BME280;58908;51.426;7.714;2022-08-19T07:02:11;99555.16;;;23.28;68.00
71195;BME280;58908;51.426;7.714;2022-08-19T07:04:37;99550.44;;;23.85;65.60
71195;BME280;58908;51.426;7.714;2022-08-19T07:07:08;99563.97;;;22.82;68.94
71195;BME280;58908;51.426;7.714;2022-08-19T07:09:35;99575.72;;;21.92;72.87
71195;BME280;58908;51.426;7.714;2022-08-19T07:12:02;99568.97;;;23.25;67.35
71195;BME280;58908;51.426;7.714;2022-08-19T07:14:28;99566.66;;;22.50;71.19
71195;BME280;58908;51.426;7.714;2022-08-19T07:16:54;99575.88;;;22.40;72.00
71195;BME280;58908;51.426;7.714;2022-08-19T07:19:20;99580.28;;;22.73;70.27
71195;BME280;58908;51.426;7.714;2022-08-19T07:21:47;99573.53;;;22.77;70.90
71195;BME280;58908;51.426;7.714;2022-08-19T07:24:12;99580.31;;;22.08;72.86
71195;BME280;58908;51.426;7.714;2022-08-19T07:26:38;99585.63;;;21.84;74.66
71195;BME280;58908;51.426;7.714;2022-08-19T07:29:04;99589.44;;;21.81;74.89
71195;BME280;58908;51.426;7.714;2022-08-19T07:31:30;99590.25;;;22.23;73.44
71195;BME280;58908;51.426;7.714;2022-08-19T07:33:55;99604.63;;;22.47;72.66
71195;BME280;58908;51.426;7.714;2022-08-19T07:36:22;99598.41;;;22.55;72.03
71195;BME280;58908;51.426;7.714;2022-08-19T07:38:48;99606.13;;;22.42;72.97
71195;BME280;58908;51.426;7.714;2022-08-19T07:41:16;99603.44;;;22.82;71.20
71195;BME280;58908;51.426;7.714;2022-08-19T07:43:41;99605.84;;;23.17;70.69
71195;BME280;58908;51.426;7.714;2022-08-19T07:46:08;99604.75;;;23.50;68.25
71195;BME280;58908;51.426;7.714;2022-08-19T07:48:34;99606.53;;;23.65;68.93
71195;BME280;58908;51.426;7.714;2022-08-19T07:51:00;99615.25;;;23.75;68.96
71195;BME280;58908;51.426;7.714;2022-08-19T07:53:27;99613.25;;;24.16;64.91
71195;BME280;58908;51.426;7.714;2022-08-19T07:55:52;99609.22;;;24.42;64.39
71195;BME280;58908;51.426;7.714;2022-08-19T07:58:18;99607.88;;;24.69;63.41
71195;BME280;58908;51.426;7.714;2022-08-19T08:00:45;99605.22;;;25.05;61.83
71195;BME280;58908;51.426;7.714;2022-08-19T08:03:11;99609.06;;;25.11;61.66
71195;BME280;58908;51.426;7.714;2022-08-19T08:05:37;99605.06;;;26.02;59.05
71195;BME280;58908;51.426;7.714;2022-08-19T08:08:20;99611.13;;;26.39;58.40
71195;BME280;58908;51.426;7.714;2022-08-19T08:11:05;99610.56;;;26.65;56.36
71195;BME280;58908;51.426;7.714;2022-08-19T08:13:30;99616.06;;;26.50;56.83
71195;BME280;58908;51.426;7.714;2022-08-19T08:15:56;99608.09;;;26.63;55.54
71195;BME280;58908;51.426;7.714;2022-08-19T08:18:21;99608.31;;;24.80;60.93
71195;BME280;58908;51.426;7.714;2022-08-19T08:20:46;99609.81;;;24.30;63.42
71195;BME280;58908;51.426;7.714;2022-08-19T08:23:11;99613.91;;;25.67;59.39
71195;BME280;58908;51.426;7.714;2022-08-19T08:25:53;99616.34;;;25.91;58.74
71195;BME280;58908;51.426;7.714;2022-08-19T08:28:19;99612.19;;;25.80;58.48
71195;BME280;58908;51.426;7.714;2022-08-19T08:30:45;99614.16;;;24.39;62.90
71195;BME280;58908;51.426;7.714;2022-08-19T08:33:12;99612.72;;;23.19;66.23
71195;BME280;58908;51.426;7.714;2022-08-19T08:35:39;99614.75;;;23.17;66.84
71195;BME280;58908;51.426;7.714;2022-08-19T08:38:06;99619.75;;;23.28;67.69
71195;BME280;58908;51.426;7.714;2022-08-19T08:40:39;99615.75;;;23.16;67.14
71195;BME280;58908;51.426;7.714;2022-08-19T08:43:09;99620.69;;;24.44;63.36
71195;BME280;58908;51.426;7.714;2022-08-19T08:45:36;99622.19;;;25.80;59.33
71195;BME280;58908;51.426;7.714;2022-08-19T08:48:10;99623.78;;;25.60;59.27
71195;BME280;58908;51.426;7.714;2022-08-19T08:50:39;99616.59;;;25.81;58.55
71195;BME280;58908;51.426;7.714;2022-08-19T08:53:06;99618.44;;;26.24;57.60
71195;BME280;58908;51.426;7.714;2022-08-19T08:55:33;99618.63;;;26.44;56.63
71195;BME280;58908;51.426;7.714;2022-08-19T08:57:59;99618.16;;;26.19;56.92
71195;BME280;58908;51.426;7.714;2022-08-19T09:00:33;99615.03;;;25.87;57.76
71195;BME280;58908;51.426;7.714;2022-08-19T09:02:58;99609.50;;;25.80;58.50
71195;BME280;58908;51.426;7.714;2022-08-19T09:05:30;99611.94;;;26.75;55.38
71195;BME280;58908;51.426;7.714;2022-08-19T09:08:00;99613.50;;;27.33;54.22
71195;BME280;58908;51.426;7.714;2022-08-19T09:10:44;99619.50;;;27.01;53.56
71195;BME280;58908;51.426;7.714;2022-08-19T09:16:06;99617.19;;;27.04;54.10
71195;BME280;58908;51.426;7.714;2022-08-19T09:18:46;99619.94;;;25.54;55.63
71195;BME280;58908;51.426;7.714;2022-08-19T09:21:12;99630.34;;;24.39;60.27
71195;BME280;58908;51.426;7.714;2022-08-19T09:23:38;99617.59;;;25.37;56.83
71195;BME280;58908;51.426;7.714;2022-08-19T09:26:07;99619.56;;;26.15;53.96
71195;BME280;58908;51.426;7.714;2022-08-19T09:28:32;99605.19;;;27.95;50.29
71195;BME280;58908;51.426;7.714;2022-08-19T09:30:57;99607.75;;;27.42;50.75
71195;BME280;58908;51.426;7.714;2022-08-19T09:33:22;99604.78;;;27.71;50.78
71195;BME280;58908;51.426;7.714;2022-08-19T09:35:47;99612.78;;;25.47;55.03
71195;BME280;58908;51.426;7.714;2022-08-19T09:38:13;99613.44;;;24.45;59.30
71195;BME280;58908;51.426;7.714;2022-08-19T09:40:38;99613.81;;;25.46;55.72
71195;BME280;58908;51.426;7.714;2022-08-19T09:43:03;99603.47;;;25.93;53.13
71195;BME280;58908;51.426;7.714;2022-08-19T09:45:29;99602.44;;;25.13;55.57
71195;BME280;58908;51.426;7.714;2022-08-19T09:47:55;99605.41;;;25.55;54.51
71195;BME280;58908;51.426;7.714;2022-08-19T09:50:21;99609.16;;;26.33;52.38
71195;BME280;58908;51.426;7.714;2022-08-19T09:52:47;99607.63;;;26.10;53.16
71195;BME280;58908;51.426;7.714;2022-08-19T09:55:12;99608.72;;;24.91;57.00
71195;BME280;58908;51.426;7.714;2022-08-19T09:57:37;99616.88;;;24.31;59.39
71195;BME280;58908;51.426;7.714;2022-08-19T10:00:04;99613.94;;;25.30;55.61
71195;BME280;58908;51.426;7.714;2022-08-19T10:02:30;99618.13;;;24.73;55.85
71195;BME280;58908;51.426;7.714;2022-08-19T10:04:55;99606.56;;;24.65;56.86
71195;BME280;58908;51.426;7.714;2022-08-19T10:07:39;99601.50;;;25.58;54.92
71195;BME280;58908;51.426;7.714;2022-08-19T10:10:04;99595.94;;;26.80;51.03
71195;BME280;58908;51.426;7.714;2022-08-19T10:12:31;99595.88;;;27.43;48.59
71195;BME280;58908;51.426;7.714;2022-08-19T10:14:57;99601.56;;;26.58;51.03
71195;BME280;58908;51.426;7.714;2022-08-19T10:17:22;99602.50;;;26.92;50.50
71195;BME280;58908;51.426;7.714;2022-08-19T10:19:50;99598.09;;;28.54;47.97
71195;BME280;58908;51.426;7.714;2022-08-19T10:22:15;99595.84;;;26.67;50.03
71195;BME280;58908;51.426;7.714;2022-08-19T10:24:41;99602.63;;;25.12;55.25
71195;BME280;58908;51.426;7.714;2022-08-19T10:27:06;99596.56;;;24.95;56.12
71195;BME280;58908;51.426;7.714;2022-08-19T10:29:32;99598.03;;;24.98;56.13
71195;BME280;58908;51.426;7.714;2022-08-19T10:32:00;99600.06;;;24.96;56.04
71195;BME280;58908;51.426;7.714;2022-08-19T10:34:25;99606.53;;;26.04;52.93
71195;BME280;58908;51.426;7.714;2022-08-19T10:36:51;99600.78;;;25.49;52.91
71195;BME280;58908;51.426;7.714;2022-08-19T10:39:16;99600.88;;;24.82;54.66
71195;BME280;58908;51.426;7.714;2022-08-19T10:41:41;99598.44;;;24.73;54.80
71195;BME280;58908;51.426;7.714;2022-08-19T10:44:09;99601.47;;;25.29;52.67
71195;BME280;58908;51.426;7.714;2022-08-19T10:46:35;99595.06;;;26.38;49.19
71195;BME280;58908;51.426;7.714;2022-08-19T10:49:01;99591.59;;;27.28;46.03
71195;BME280;58908;51.426;7.714;2022-08-19T10:51:27;99583.00;;;27.51;45.15
71195;BME280;58908;51.426;7.714;2022-08-19T10:54:11;99585.41;;;26.85;47.37
71195;BME280;58908;51.426;7.714;2022-08-19T10:56:36;99584.41;;;26.93;47.02
71195;BME280;58908;51.426;7.714;2022-08-19T10:59:17;99572.84;;;26.42;49.62
71195;BME280;58908;51.426;7.714;2022-08-19T11:01:44;99581.81;;;25.20;51.17
71195;BME280;58908;51.426;7.714;2022-08-19T11:04:09;99571.94;;;24.90;51.54
71195;BME280;58908;51.426;7.714;2022-08-19T11:06:36;99568.69;;;24.58;51.95
71195;BME280;58908;51.426;7.714;2022-08-19T11:09:03;99568.31;;;24.61;51.37
71195;BME280;58908;51.426;7.714;2022-08-19T11:11:29;99574.56;;;25.35;50.85
71195;BME280;58908;51.426;7.714;2022-08-19T11:13:55;99570.75;;;25.44;51.73
71195;BME280;58908;51.426;7.714;2022-08-19T11:16:21;99576.00;;;24.72;54.98
71195;BME280;58908;51.426;7.714;2022-08-19T11:18:48;99576.41;;;24.39;55.95
71195;BME280;58908;51.426;7.714;2022-08-19T11:21:17;99572.72;;;24.32;55.47
71195;BME280;58908;51.426;7.714;2022-08-19T11:23:44;99575.50;;;24.46;55.77
71195;BME280;58908;51.426;7.714;2022-08-19T11:26:10;99580.44;;;24.35;55.71
71195;BME280;58908;51.426;7.714;2022-08-19T11:28:35;99572.31;;;24.43;55.53
71195;BME280;58908;51.426;7.714;2022-08-19T11:31:00;99576.16;;;24.48;55.46
71195;BME280;58908;51.426;7.714;2022-08-19T11:33:28;99565.94;;;25.03;54.71
71195;BME280;58908;51.426;7.714;2022-08-19T11:35:53;99562.97;;;25.12;53.17
71195;BME280;58908;51.426;7.714;2022-08-19T11:38:19;99567.31;;;25.36;52.88
71195;BME280;58908;51.426;7.714;2022-08-19T11:40:44;99559.88;;;25.67;51.39
71195;BME280;58908;51.426;7.714;2022-08-19T11:43:09;99565.28;;;25.52;51.24
71195;BME280;58908;51.426;7.714;2022-08-19T11:45:35;99568.59;;;25.83;50.47
71195;BME280;58908;51.426;7.714;2022-08-19T11:48:00;99562.81;;;25.72;51.45
71195;BME280;58908;51.426;7.714;2022-08-19T11:50:26;99561.88;;;25.65;50.95
71195;BME280;58908;51.426;7.714;2022-08-19T11:52:55;99570.28;;;25.41;53.25
71195;BME280;58908;51.426;7.714;2022-08-19T11:55:21;99564.97;;;26.05;51.87
71195;BME280;58908;51.426;7.714;2022-08-19T11:57:46;99558.81;;;25.97;51.28
71195;BME280;58908;51.426;7.714;2022-08-19T12:00:11;99558.44;;;26.21;50.72
71195;BME280;58908;51.426;7.714;2022-08-19T12:02:38;99567.41;;;26.21;50.32
71195;BME280;58908;51.426;7.714;2022-08-19T12:05:03;99558.78;;;26.11;50.37
71195;BME280;58908;51.426;7.714;2022-08-19T12:07:29;99570.59;;;26.25;49.77
71195;BME280;58908;51.426;7.714;2022-08-19T12:09:57;99555.50;;;26.16;49.30
71195;BME280;58908;51.426;7.714;2022-08-19T12:12:23;99558.31;;;26.08;49.50
71195;BME280;58908;51.426;7.714;2022-08-19T12:14:49;99549.06;;;25.67;48.60
71195;BME280;58908;51.426;7.714;2022-08-19T12:17:21;99550.38;;;25.27;50.95
71195;BME280;58908;51.426;7.714;2022-08-19T12:19:46;99557.53;;;25.20;50.92
71195;BME280;58908;51.426;7.714;2022-08-19T12:22:12;99553.97;;;25.20;50.10
71195;BME280;58908;51.426;7.714;2022-08-19T12:24:37;99548.97;;;25.09;50.51
71195;BME280;58908;51.426;7.714;2022-08-19T12:27:02;99545.53;;;25.00;50.23
71195;BME280;58908;51.426;7.714;2022-08-19T12:29:28;99544.41;;;24.95;49.99
71195;BME280;58908;51.426;7.714;2022-08-19T12:31:53;99550.16;;;25.43;49.87
71195;BME280;58908;51.426;7.714;2022-08-19T12:34:19;99536.81;;;26.21;47.95
71195;BME280;58908;51.426;7.714;2022-08-19T12:36:44;99535.16;;;26.20;47.49
71195;BME280;58908;51.426;7.714;2022-08-19T12:39:10;99535.16;;;26.20;48.12
71195;BME280;58908;51.426;7.714;2022-08-19T12:41:35;99531.78;;;26.53;47.72
71195;BME280;58908;51.426;7.714;2022-08-19T12:44:01;99522.78;;;26.95;47.03
71195;BME280;58908;51.426;7.714;2022-08-19T12:46:26;99532.78;;;26.31;47.57
71195;BME280;58908;51.426;7.714;2022-08-19T12:48:51;99534.38;;;26.05;47.73
71195;BME280;58908;51.426;7.714;2022-08-19T12:51:18;99524.13;;;26.00;47.48
71195;BME280;58908;51.426;7.714;2022-08-19T12:53:46;99518.47;;;25.66;48.37
71195;BME280;58908;51.426;7.714;2022-08-19T12:56:12;99516.00;;;25.36;49.47
71195;BME280;58908;51.426;7.714;2022-08-19T12:58:39;99526.97;;;25.20;49.51
71195;BME280;58908;51.426;7.714;2022-08-19T13:01:08;99522.09;;;25.01;49.97